< Typhoon 197521 1976 Season Typhoon 197602 >
Typhoon 197601 (KATHY)
General InformationTrack Information on Google Maps || Disaster Info.ResourceGoogle EarthGE AnimationAtom FeedGeoJSON
Detalied Best Track (Time Zone = UTC)
Year Month Day Hour Lat. Long. Pressure (hPa) Wind (kt) Class Image Chart
1976 1 27 12 5.0 149.6 1004 0 2 -- Chart
1976 1 27 18 5.3 148.8 1004 0 2 -- Chart
1976 1 28 00 5.6 147.8 996 0 2 -- Chart
1976 1 28 06 6.0 146.7 990 0 9 -- Chart
1976 1 28 12 6.6 145.4 990 0 9 -- Chart
1976 1 28 18 6.8 144.0 990 0 9 -- Chart
1976 1 29 00 6.7 143.5 990 0 9 -- Chart
1976 1 29 06 6.8 143.0 990 0 9 -- Chart
1976 1 29 12 8.4 141.0 990 0 9 -- Chart
1976 1 29 18 9.5 140.0 990 0 9 -- Chart
1976 1 30 00 10.2 139.4 980 0 9 -- Chart
1976 1 30 06 10.9 138.6 975 0 9 -- Chart
1976 1 30 12 12.1 138.3 970 0 9 -- Chart
1976 1 30 18 13.4 138.3 970 0 9 -- Chart
1976 1 31 00 14.5 138.3 970 0 9 -- Chart
1976 1 31 06 15.5 138.6 965 0 9 -- Chart
1976 1 31 12 16.4 139.2 965 0 9 -- Chart
1976 1 31 18 17.3 139.8 965 0 9 -- Chart
1976 2 1 00 18.5 141.0 970 0 9 -- Chart
1976 2 1 06 19.0 143.0 975 0 9 -- Chart
1976 2 1 12 19.6 145.4 975 0 9 -- Chart
1976 2 1 18 20.4 148.5 980 0 9 -- Chart
1976 2 2 00 21.0 151.0 985 0 9 -- Chart
1976 2 2 06 21.0 153.5 990 0 9 -- Chart
1976 2 2 12 21.0 156.0 1000 0 2 -- Chart
1976 2 2 18 21.0 159.0 1004 0 2 -- Chart
Japan Meteorological Agency Best Track Data | Correction Date : 1992-10-21
< Typhoon 197521 1976 Season Typhoon 197602 >

Help